sensor_id;sensor_type;location;lat;lon;timestamp;temperature;humidity
28244;DHT22;15510;52.512;13.300;2023-04-21T00:01:03;12.80;99.90
28244;DHT22;15510;52.512;13.300;2023-04-21T00:03:33;12.70;99.90
28244;DHT22;15510;52.512;13.300;2023-04-21T00:06:03;12.70;99.90
28244;DHT22;15510;52.512;13.300;2023-04-21T00:08:31;12.70;99.90
28244;DHT22;15510;52.512;13.300;2023-04-21T00:10:57;12.60;99.90
28244;DHT22;15510;52.512;13.300;2023-04-21T00:13:23;12.60;99.90
28244;DHT22;15510;52.512;13.300;2023-04-21T00:15:49;12.50;99.90
28244;DHT22;15510;52.512;13.300;2023-04-21T00:18:16;12.50;99.90
28244;DHT22;15510;52.512;13.300;2023-04-21T00:20:43;12.50;99.90
28244;DHT22;15510;52.512;13.300;2023-04-21T00:23:09;12.50;99.90
28244;DHT22;15510;52.512;13.300;2023-04-21T00:25:36;12.40;99.90
28244;DHT22;15510;52.512;13.300;2023-04-21T00:28:02;12.40;99.90
28244;DHT22;15510;52.512;13.300;2023-04-21T00:30:28;12.30;99.90
28244;DHT22;15510;52.512;13.300;2023-04-21T00:32:53;12.40;99.90
28244;DHT22;15510;52.512;13.300;2023-04-21T00:35:21;12.30;99.90
28244;DHT22;15510;52.512;13.300;2023-04-21T00:37:47;12.30;99.90
28244;DHT22;15510;52.512;13.300;2023-04-21T00:40:15;12.30;99.90
28244;DHT22;15510;52.512;13.300;2023-04-21T00:42:40;12.30;99.90
28244;DHT22;15510;52.512;13.300;2023-04-21T00:45:07;12.20;99.90
28244;DHT22;15510;52.512;13.300;2023-04-21T00:47:33;12.20;99.90
28244;DHT22;15510;52.512;13.300;2023-04-21T00:49:59;12.10;99.90
28244;DHT22;15510;52.512;13.300;2023-04-21T00:52:25;12.00;99.90
28244;DHT22;15510;52.512;13.300;2023-04-21T00:54:53;12.00;99.90
28244;DHT22;15510;52.512;13.300;2023-04-21T00:57:20;12.00;99.90
28244;DHT22;15510;52.512;13.300;2023-04-21T00:59:46;12.00;99.90
28244;DHT22;15510;52.512;13.300;2023-04-21T01:02:17;12.00;99.90
28244;DHT22;15510;52.512;13.300;2023-04-21T01:04:43;11.90;99.90
28244;DHT22;15510;52.512;13.300;2023-04-21T01:07:10;11.90;99.90
28244;DHT22;15510;52.512;13.300;2023-04-21T01:09:36;11.90;99.90
28244;DHT22;15510;52.512;13.300;2023-04-21T01:12:08;11.90;99.90
28244;DHT22;15510;52.512;13.300;2023-04-21T01:14:37;11.90;99.90
28244;DHT22;15510;52.512;13.300;2023-04-21T01:17:06;11.90;99.90
28244;DHT22;15510;52.512;13.300;2023-04-21T01:19:41;11.90;99.90
28244;DHT22;15510;52.512;13.300;2023-04-21T01:22:08;11.90;99.90
28244;DHT22;15510;52.512;13.300;2023-04-21T01:24:39;11.80;99.90
28244;DHT22;15510;52.512;13.300;2023-04-21T01:27:14;11.80;99.90
28244;DHT22;15510;52.512;13.300;2023-04-21T01:29:42;11.70;99.90
28244;DHT22;15510;52.512;13.300;2023-04-21T01:32:11;11.80;99.90
28244;DHT22;15510;52.512;13.300;2023-04-21T01:34:39;11.80;99.90
28244;DHT22;15510;52.512;13.300;2023-04-21T01:37:13;11.70;99.90
28244;DHT22;15510;52.512;13.300;2023-04-21T01:39:41;11.70;99.90
28244;DHT22;15510;52.512;13.300;2023-04-21T01:42:07;11.70;99.90
28244;DHT22;15510;52.512;13.300;2023-04-21T01:44:34;11.60;99.90
28244;DHT22;15510;52.512;13.300;2023-04-21T01:47:00;11.60;99.90
28244;DHT22;15510;52.512;13.300;2023-04-21T01:49:26;11.70;99.90
28244;DHT22;15510;52.512;13.300;2023-04-21T01:51:52;11.60;99.90
28244;DHT22;15510;52.512;13.300;2023-04-21T01:54:18;11.70;99.90
28244;DHT22;15510;52.512;13.300;2023-04-21T01:56:45;11.70;99.90
28244;DHT22;15510;52.512;13.300;2023-04-21T01:59:10;11.60;99.90
28244;DHT22;15510;52.512;13.300;2023-04-21T02:01:36;11.60;99.90
28244;DHT22;15510;52.512;13.300;2023-04-21T02:04:03;11.60;99.90
28244;DHT22;15510;52.512;13.300;2023-04-21T02:06:29;11.60;99.90
28244;DHT22;15510;52.512;13.300;2023-04-21T02:08:58;11.60;99.90
28244;DHT22;15510;52.512;13.300;2023-04-21T02:11:26;11.60;99.90
28244;DHT22;15510;52.512;13.300;2023-04-21T02:13:53;11.60;99.90
28244;DHT22;15510;52.512;13.300;2023-04-21T02:16:20;11.60;99.90
28244;DHT22;15510;52.512;13.300;2023-04-21T02:18:47;11.60;99.90
28244;DHT22;15510;52.512;13.300;2023-04-21T02:21:13;11.60;99.90
28244;DHT22;15510;52.512;13.300;2023-04-21T02:23:38;11.60;99.90
28244;DHT22;15510;52.512;13.300;2023-04-21T02:26:05;11.60;99.90
28244;DHT22;15510;52.512;13.300;2023-04-21T02:28:31;11.50;99.90
28244;DHT22;15510;52.512;13.300;2023-04-21T02:30:56;11.50;99.90
28244;DHT22;15510;52.512;13.300;2023-04-21T02:33:22;11.50;99.90
28244;DHT22;15510;52.512;13.300;2023-04-21T02:35:48;11.50;99.90
28244;DHT22;15510;52.512;13.300;2023-04-21T02:38:14;11.50;99.90
28244;DHT22;15510;52.512;13.300;2023-04-21T02:40:41;11.50;99.90
28244;DHT22;15510;52.512;13.300;2023-04-21T02:43:07;11.50;99.90
28244;DHT22;15510;52.512;13.300;2023-04-21T02:45:33;11.40;99.90
28244;DHT22;15510;52.512;13.300;2023-04-21T02:47:59;11.30;99.90
28244;DHT22;15510;52.512;13.300;2023-04-21T02:50:25;11.30;99.90
28244;DHT22;15510;52.512;13.300;2023-04-21T02:52:51;11.30;99.90
28244;DHT22;15510;52.512;13.300;2023-04-21T02:55:16;11.30;99.90
28244;DHT22;15510;52.512;13.300;2023-04-21T02:57:42;11.30;99.90
28244;DHT22;15510;52.512;13.300;2023-04-21T03:00:08;11.30;99.90
28244;DHT22;15510;52.512;13.300;2023-04-21T03:02:37;11.30;99.90
28244;DHT22;15510;52.512;13.300;2023-04-21T03:05:03;11.20;99.90
28244;DHT22;15510;52.512;13.300;2023-04-21T03:07:29;11.30;99.90
28244;DHT22;15510;52.512;13.300;2023-04-21T03:09:55;11.30;99.90
28244;DHT22;15510;52.512;13.300;2023-04-21T03:12:21;11.30;99.90
28244;DHT22;15510;52.512;13.300;2023-04-21T03:14:47;11.30;99.90
28244;DHT22;15510;52.512;13.300;2023-04-21T03:17:13;11.20;99.90
28244;DHT22;15510;52.512;13.300;2023-04-21T03:19:39;11.20;99.90
28244;DHT22;15510;52.512;13.300;2023-04-21T03:22:05;11.20;99.90
28244;DHT22;15510;52.512;13.300;2023-04-21T03:24:31;11.10;99.90
28244;DHT22;15510;52.512;13.300;2023-04-21T03:26:57;11.10;99.90
28244;DHT22;15510;52.512;13.300;2023-04-21T03:29:23;11.00;99.90
28244;DHT22;15510;52.512;13.300;2023-04-21T03:31:50;11.00;99.90
28244;DHT22;15510;52.512;13.300;2023-04-21T03:34:16;11.00;99.90
28244;DHT22;15510;52.512;13.300;2023-04-21T03:36:42;11.00;99.90
28244;DHT22;15510;52.512;13.300;2023-04-21T03:39:09;11.00;99.90
28244;DHT22;15510;52.512;13.300;2023-04-21T03:41:35;11.00;99.90
28244;DHT22;15510;52.512;13.300;2023-04-21T03:44:03;11.00;99.90
28244;DHT22;15510;52.512;13.300;2023-04-21T03:46:29;11.00;99.90
28244;DHT22;15510;52.512;13.300;2023-04-21T03:48:54;11.00;99.90
28244;DHT22;15510;52.512;13.300;2023-04-21T03:51:20;11.00;99.90
28244;DHT22;15510;52.512;13.300;2023-04-21T03:53:46;10.90;99.90
28244;DHT22;15510;52.512;13.300;2023-04-21T03:56:12;10.90;99.90
28244;DHT22;15510;52.512;13.300;2023-04-21T03:58:38;10.90;99.90
28244;DHT22;15510;52.512;13.300;2023-04-21T04:01:05;10.80;99.90
28244;DHT22;15510;52.512;13.300;2023-04-21T04:03:32;10.90;99.90
28244;DHT22;15510;52.512;13.300;2023-04-21T04:05:57;10.80;99.90
28244;DHT22;15510;52.512;13.300;2023-04-21T04:08:23;10.80;99.90
28244;DHT22;15510;52.512;13.300;2023-04-21T04:10:49;10.70;99.90
28244;DHT22;15510;52.512;13.300;2023-04-21T04:13:15;10.70;99.90
28244;DHT22;15510;52.512;13.300;2023-04-21T04:15:41;10.80;99.90
28244;DHT22;15510;52.512;13.300;2023-04-21T04:18:07;10.80;99.90
28244;DHT22;15510;52.512;13.300;2023-04-21T04:20:37;10.80;99.90
28244;DHT22;15510;52.512;13.300;2023-04-21T04:23:02;10.80;99.90
28244;DHT22;15510;52.512;13.300;2023-04-21T04:25:28;10.70;99.90
28244;DHT22;15510;52.512;13.300;2023-04-21T04:27:54;10.80;99.90
28244;DHT22;15510;52.512;13.300;2023-04-21T04:30:25;10.80;99.90
28244;DHT22;15510;52.512;13.300;2023-04-21T04:32:53;10.70;99.90
28244;DHT22;15510;52.512;13.300;2023-04-21T04:35:19;10.80;99.90
28244;DHT22;15510;52.512;13.300;2023-04-21T04:37:45;10.80;99.90
28244;DHT22;15510;52.512;13.300;2023-04-21T04:40:10;10.70;99.90
28244;DHT22;15510;52.512;13.300;2023-04-21T04:42:36;10.70;99.90
28244;DHT22;15510;52.512;13.300;2023-04-21T04:45:04;10.80;99.90
28244;DHT22;15510;52.512;13.300;2023-04-21T04:47:30;10.80;99.90
28244;DHT22;15510;52.512;13.300;2023-04-21T04:49:56;10.80;99.90
28244;DHT22;15510;52.512;13.300;2023-04-21T04:52:22;10.80;99.90
28244;DHT22;15510;52.512;13.300;2023-04-21T04:54:47;10.90;99.90
28244;DHT22;15510;52.512;13.300;2023-04-21T04:57:13;10.90;99.90
28244;DHT22;15510;52.512;13.300;2023-04-21T04:59:39;10.90;99.90
28244;DHT22;15510;52.512;13.300;2023-04-21T05:02:06;10.90;99.90
28244;DHT22;15510;52.512;13.300;2023-04-21T05:04:33;11.00;99.90
28244;DHT22;15510;52.512;13.300;2023-04-21T05:06:58;10.90;99.90
28244;DHT22;15510;52.512;13.300;2023-04-21T05:09:24;10.90;99.90
28244;DHT22;15510;52.512;13.300;2023-04-21T05:11:50;11.00;99.90
28244;DHT22;15510;52.512;13.300;2023-04-21T05:14:16;11.00;99.90
28244;DHT22;15510;52.512;13.300;2023-04-21T05:16:43;11.10;99.90
28244;DHT22;15510;52.512;13.300;2023-04-21T05:19:08;11.10;99.90
28244;DHT22;15510;52.512;13.300;2023-04-21T05:21:34;11.10;99.90
28244;DHT22;15510;52.512;13.300;2023-04-21T05:24:00;11.20;99.90
28244;DHT22;15510;52.512;13.300;2023-04-21T05:26:27;11.20;99.90
28244;DHT22;15510;52.512;13.300;2023-04-21T05:28:54;11.20;99.90
28244;DHT22;15510;52.512;13.300;2023-04-21T05:31:24;11.20;99.90
28244;DHT22;15510;52.512;13.300;2023-04-21T05:33:50;11.30;99.90
28244;DHT22;15510;52.512;13.300;2023-04-21T05:36:16;11.30;99.90
28244;DHT22;15510;52.512;13.300;2023-04-21T05:38:42;11.30;99.90
28244;DHT22;15510;52.512;13.300;2023-04-21T05:41:08;11.40;99.90
28244;DHT22;15510;52.512;13.300;2023-04-21T05:43:34;11.40;99.90
28244;DHT22;15510;52.512;13.300;2023-04-21T05:46:08;11.50;99.90
28244;DHT22;15510;52.512;13.300;2023-04-21T05:48:40;11.50;99.90
28244;DHT22;15510;52.512;13.300;2023-04-21T05:51:10;11.60;99.90
28244;DHT22;15510;52.512;13.300;2023-04-21T05:53:39;11.60;99.90
28244;DHT22;15510;52.512;13.300;2023-04-21T05:56:07;11.70;99.90
28244;DHT22;15510;52.512;13.300;2023-04-21T05:58:32;11.80;99.90
28244;DHT22;15510;52.512;13.300;2023-04-21T06:00:58;11.90;99.90
28244;DHT22;15510;52.512;13.300;2023-04-21T06:03:24;12.00;99.90
28244;DHT22;15510;52.512;13.300;2023-04-21T06:05:57;12.00;99.90
28244;DHT22;15510;52.512;13.300;2023-04-21T06:08:23;12.20;99.90
28244;DHT22;15510;52.512;13.300;2023-04-21T06:10:49;12.20;99.90
28244;DHT22;15510;52.512;13.300;2023-04-21T06:13:15;12.20;99.90
28244;DHT22;15510;52.512;13.300;2023-04-21T06:15:40;12.30;99.90
28244;DHT22;15510;52.512;13.300;2023-04-21T06:18:06;12.40;99.90
28244;DHT22;15510;52.512;13.300;2023-04-21T06:20:32;12.40;99.90
28244;DHT22;15510;52.512;13.300;2023-04-21T06:22:58;12.50;99.90
28244;DHT22;15510;52.512;13.300;2023-04-21T06:25:24;12.60;99.90
28244;DHT22;15510;52.512;13.300;2023-04-21T06:27:50;12.70;99.90
28244;DHT22;15510;52.512;13.300;2023-04-21T06:30:15;12.80;99.90
28244;DHT22;15510;52.512;13.300;2023-04-21T06:32:42;12.90;99.90
28244;DHT22;15510;52.512;13.300;2023-04-21T06:35:08;13.00;99.90
28244;DHT22;15510;52.512;13.300;2023-04-21T06:37:36;13.10;99.90
28244;DHT22;15510;52.512;13.300;2023-04-21T06:40:03;13.10;99.90
28244;DHT22;15510;52.512;13.300;2023-04-21T06:42:32;13.20;99.90
28244;DHT22;15510;52.512;13.300;2023-04-21T06:44:57;13.30;99.90
28244;DHT22;15510;52.512;13.300;2023-04-21T06:47:23;13.40;99.90
28244;DHT22;15510;52.512;13.300;2023-04-21T06:49:52;13.50;99.90
28244;DHT22;15510;52.512;13.300;2023-04-21T06:52:18;13.60;99.90
28244;DHT22;15510;52.512;13.300;2023-04-21T06:54:43;13.70;99.90
28244;DHT22;15510;52.512;13.300;2023-04-21T06:57:12;13.80;99.90
28244;DHT22;15510;52.512;13.300;2023-04-21T06:59:39;13.90;99.90
28244;DHT22;15510;52.512;13.300;2023-04-21T07:02:05;14.00;99.90
28244;DHT22;15510;52.512;13.300;2023-04-21T07:04:31;14.20;99.90
28244;DHT22;15510;52.512;13.300;2023-04-21T07:06:57;14.30;99.90
28244;DHT22;15510;52.512;13.300;2023-04-21T07:09:23;14.30;99.90
28244;DHT22;15510;52.512;13.300;2023-04-21T07:11:48;14.40;99.90
28244;DHT22;15510;52.512;13.300;2023-04-21T07:14:14;14.50;99.90
28244;DHT22;15510;52.512;13.300;2023-04-21T07:16:40;14.50;99.90
28244;DHT22;15510;52.512;13.300;2023-04-21T07:19:06;14.60;99.90
28244;DHT22;15510;52.512;13.300;2023-04-21T07:21:32;14.70;99.90
28244;DHT22;15510;52.512;13.300;2023-04-21T07:24:01;14.90;99.90
28244;DHT22;15510;52.512;13.300;2023-04-21T07:26:28;15.30;99.90
28244;DHT22;15510;52.512;13.300;2023-04-21T07:28:54;15.90;99.90
28244;DHT22;15510;52.512;13.300;2023-04-21T07:31:25;16.10;99.90
28244;DHT22;15510;52.512;13.300;2023-04-21T07:33:52;16.20;99.90
28244;DHT22;15510;52.512;13.300;2023-04-21T07:36:18;16.20;99.90
28244;DHT22;15510;52.512;13.300;2023-04-21T07:38:43;16.20;99.90
28244;DHT22;15510;52.512;13.300;2023-04-21T07:41:10;16.10;99.90
28244;DHT22;15510;52.512;13.300;2023-04-21T07:43:39;16.00;99.90
28244;DHT22;15510;52.512;13.300;2023-04-21T07:46:05;15.90;99.90
28244;DHT22;15510;52.512;13.300;2023-04-21T07:48:31;15.90;99.90
28244;DHT22;15510;52.512;13.300;2023-04-21T07:50:57;16.00;99.90
28244;DHT22;15510;52.512;13.300;2023-04-21T07:53:25;16.00;99.90
28244;DHT22;15510;52.512;13.300;2023-04-21T07:55:52;16.10;99.90
28244;DHT22;15510;52.512;13.300;2023-04-21T07:58:17;16.20;99.90
28244;DHT22;15510;52.512;13.300;2023-04-21T08:00:43;16.20;99.90
28244;DHT22;15510;52.512;13.300;2023-04-21T08:03:10;16.30;99.90
28244;DHT22;15510;52.512;13.300;2023-04-21T08:05:36;16.40;99.90
28244;DHT22;15510;52.512;13.300;2023-04-21T08:08:05;16.40;99.90
28244;DHT22;15510;52.512;13.300;2023-04-21T08:10:33;16.50;99.90
28244;DHT22;15510;52.512;13.300;2023-04-21T08:13:00;16.50;99.90
28244;DHT22;15510;52.512;13.300;2023-04-21T08:15:30;16.50;99.90
28244;DHT22;15510;52.512;13.300;2023-04-21T08:17:56;16.60;99.90
28244;DHT22;15510;52.512;13.300;2023-04-21T08:20:22;16.70;99.90
28244;DHT22;15510;52.512;13.300;2023-04-21T08:22:47;16.70;99.90
28244;DHT22;15510;52.512;13.300;2023-04-21T08:25:13;16.80;99.90
28244;DHT22;15510;52.512;13.300;2023-04-21T08:27:39;16.80;99.90
28244;DHT22;15510;52.512;13.300;2023-04-21T08:30:09;16.90;99.90
28244;DHT22;15510;52.512;13.300;2023-04-21T08:32:35;16.90;99.90
28244;DHT22;15510;52.512;13.300;2023-04-21T08:35:00;17.00;99.90
28244;DHT22;15510;52.512;13.300;2023-04-21T08:37:26;17.00;99.90
28244;DHT22;15510;52.512;13.300;2023-04-21T08:39:53;17.00;99.90
28244;DHT22;15510;52.512;13.300;2023-04-21T08:42:19;17.10;99.90
28244;DHT22;15510;52.512;13.300;2023-04-21T08:44:46;17.10;99.90
28244;DHT22;15510;52.512;13.300;2023-04-21T08:47:13;17.20;99.90
28244;DHT22;15510;52.512;13.300;2023-04-21T08:49:40;17.30;99.90
28244;DHT22;15510;52.512;13.300;2023-04-21T08:52:07;17.20;99.90
28244;DHT22;15510;52.512;13.300;2023-04-21T08:54:36;17.20;99.90
28244;DHT22;15510;52.512;13.300;2023-04-21T08:57:02;17.20;99.90
28244;DHT22;15510;52.512;13.300;2023-04-21T08:59:31;17.30;99.90
28244;DHT22;15510;52.512;13.300;2023-04-21T09:02:17;17.40;99.90
28244;DHT22;15510;52.512;13.300;2023-04-21T09:04:45;17.60;99.90
28244;DHT22;15510;52.512;13.300;2023-04-21T09:07:28;17.60;99.90
28244;DHT22;15510;52.512;13.300;2023-04-21T09:09:55;17.70;99.90
28244;DHT22;15510;52.512;13.300;2023-04-21T09:12:22;17.80;99.90
28244;DHT22;15510;52.512;13.300;2023-04-21T09:14:48;17.80;99.90
28244;DHT22;15510;52.512;13.300;2023-04-21T09:17:15;17.90;99.90
28244;DHT22;15510;52.512;13.300;2023-04-21T09:19:42;18.10;99.90
28244;DHT22;15510;52.512;13.300;2023-04-21T09:22:25;18.10;99.90
28244;DHT22;15510;52.512;13.300;2023-04-21T09:25:02;18.10;99.90
28244;DHT22;15510;52.512;13.300;2023-04-21T09:27:37;18.10;99.70
28244;DHT22;15510;52.512;13.300;2023-04-21T09:30:04;18.10;98.90
28244;DHT22;15510;52.512;13.300;2023-04-21T09:32:38;18.10;99.70
28244;DHT22;15510;52.512;13.300;2023-04-21T09:35:11;18.10;99.10
28244;DHT22;15510;52.512;13.300;2023-04-21T09:37:38;18.10;99.20
28244;DHT22;15510;52.512;13.300;2023-04-21T09:40:04;18.20;99.40
28244;DHT22;15510;52.512;13.300;2023-04-21T09:42:33;18.30;99.90
28244;DHT22;15510;52.512;13.300;2023-04-21T09:45:00;18.30;99.20
28244;DHT22;15510;52.512;13.300;2023-04-21T09:47:28;18.30;98.70
28244;DHT22;15510;52.512;13.300;2023-04-21T09:49:57;18.40;98.20
28244;DHT22;15510;52.512;13.300;2023-04-21T09:52:23;18.50;98.30
28244;DHT22;15510;52.512;13.300;2023-04-21T09:54:54;18.50;99.60
28244;DHT22;15510;52.512;13.300;2023-04-21T09:57:24;18.60;99.00
28244;DHT22;15510;52.512;13.300;2023-04-21T10:00:04;18.60;96.20
28244;DHT22;15510;52.512;13.300;2023-04-21T10:02:44;18.70;96.60
28244;DHT22;15510;52.512;13.300;2023-04-21T10:05:12;18.70;96.80
28244;DHT22;15510;52.512;13.300;2023-04-21T10:08:00;18.70;97.10
28244;DHT22;15510;52.512;13.300;2023-04-21T10:10:41;18.80;96.90
28244;DHT22;15510;52.512;13.300;2023-04-21T10:13:15;18.90;96.40
28244;DHT22;15510;52.512;13.300;2023-04-21T10:16:01;19.00;95.90
28244;DHT22;15510;52.512;13.300;2023-04-21T10:21:37;19.20;95.00
28244;DHT22;15510;52.512;13.300;2023-04-21T10:24:23;19.30;94.90
28244;DHT22;15510;52.512;13.300;2023-04-21T10:27:08;19.40;94.10
28244;DHT22;15510;52.512;13.300;2023-04-21T10:29:34;19.30;93.00
28244;DHT22;15510;52.512;13.300;2023-04-21T10:32:40;19.30;93.10
28244;DHT22;15510;52.512;13.300;2023-04-21T10:35:13;19.30;92.60
28244;DHT22;15510;52.512;13.300;2023-04-21T10:37:47;19.30;92.30
28244;DHT22;15510;52.512;13.300;2023-04-21T10:40:38;19.40;92.00
28244;DHT22;15510;52.512;13.300;2023-04-21T10:43:43;19.40;91.00
28244;DHT22;15510;52.512;13.300;2023-04-21T10:46:36;19.60;90.00
28244;DHT22;15510;52.512;13.300;2023-04-21T10:49:31;19.70;89.30
28244;DHT22;15510;52.512;13.300;2023-04-21T10:52:11;19.90;90.20
28244;DHT22;15510;52.512;13.300;2023-04-21T10:57:21;20.20;89.20
28244;DHT22;15510;52.512;13.300;2023-04-21T10:59:48;20.20;87.10
28244;DHT22;15510;52.512;13.300;2023-04-21T11:02:18;20.30;86.30
28244;DHT22;15510;52.512;13.300;2023-04-21T11:04:53;20.50;85.20
28244;DHT22;15510;52.512;13.300;2023-04-21T11:07:39;20.90;84.10
28244;DHT22;15510;52.512;13.300;2023-04-21T11:10:12;21.80;82.60
28244;DHT22;15510;52.512;13.300;2023-04-21T11:12:41;22.70;77.30
28244;DHT22;15510;52.512;13.300;2023-04-21T11:15:09;23.60;72.40
28244;DHT22;15510;52.512;13.300;2023-04-21T11:17:36;24.40;68.10
28244;DHT22;15510;52.512;13.300;2023-04-21T11:20:08;25.00;63.90
28244;DHT22;15510;52.512;13.300;2023-04-21T11:22:37;25.30;60.60
28244;DHT22;15510;52.512;13.300;2023-04-21T11:25:03;25.10;59.60
28244;DHT22;15510;52.512;13.300;2023-04-21T11:27:30;24.90;59.20
28244;DHT22;15510;52.512;13.300;2023-04-21T11:29:57;25.60;59.10
28244;DHT22;15510;52.512;13.300;2023-04-21T11:32:23;26.20;57.10
28244;DHT22;15510;52.512;13.300;2023-04-21T11:34:50;26.60;53.20
28244;DHT22;15510;52.512;13.300;2023-04-21T11:37:26;26.70;52.60
28244;DHT22;15510;52.512;13.300;2023-04-21T11:39:59;26.50;54.40
28244;DHT22;15510;52.512;13.300;2023-04-21T11:42:25;27.10;52.50
28244;DHT22;15510;52.512;13.300;2023-04-21T11:44:56;27.80;50.60
28244;DHT22;15510;52.512;13.300;2023-04-21T11:47:24;28.00;48.90
28244;DHT22;15510;52.512;13.300;2023-04-21T11:49:57;28.00;48.90
28244;DHT22;15510;52.512;13.300;2023-04-21T11:52:27;27.90;49.00
28244;DHT22;15510;52.512;13.300;2023-04-21T11:54:58;27.80;48.80
28244;DHT22;15510;52.512;13.300;2023-04-21T11:57:25;27.50;49.50
28244;DHT22;15510;52.512;13.300;2023-04-21T11:59:51;27.60;47.90
28244;DHT22;15510;52.512;13.300;2023-04-21T12:02:26;27.70;49.00
28244;DHT22;15510;52.512;13.300;2023-04-21T12:05:06;28.00;48.50
28244;DHT22;15510;52.512;13.300;2023-04-21T12:07:35;28.00;47.30
28244;DHT22;15510;52.512;13.300;2023-04-21T12:10:06;28.10;47.50
28244;DHT22;15510;52.512;13.300;2023-04-21T12:12:36;28.30;46.10
28244;DHT22;15510;52.512;13.300;2023-04-21T12:15:04;28.60;46.00
28244;DHT22;15510;52.512;13.300;2023-04-21T12:20:10;29.10;44.50
28244;DHT22;15510;52.512;13.300;2023-04-21T12:22:36;29.20;45.10
28244;DHT22;15510;52.512;13.300;2023-04-21T12:25:03;29.80;44.10
28244;DHT22;15510;52.512;13.300;2023-04-21T12:27:29;30.50;43.80
28244;DHT22;15510;52.512;13.300;2023-04-21T12:29:55;30.90;42.40
28244;DHT22;15510;52.512;13.300;2023-04-21T12:32:21;30.80;42.40
28244;DHT22;15510;52.512;13.300;2023-04-21T12:34:47;30.70;42.30
28244;DHT22;15510;52.512;13.300;2023-04-21T12:37:12;29.40;42.30
28244;DHT22;15510;52.512;13.300;2023-04-21T12:39:38;27.70;44.20
28244;DHT22;15510;52.512;13.300;2023-04-21T12:42:04;26.80;45.00
28244;DHT22;15510;52.512;13.300;2023-04-21T12:44:30;27.00;45.30
28244;DHT22;15510;52.512;13.300;2023-04-21T12:46:56;27.90;45.40
28244;DHT22;15510;52.512;13.300;2023-04-21T12:49:23;27.90;44.60
28244;DHT22;15510;52.512;13.300;2023-04-21T12:51:49;27.10;45.40
28244;DHT22;15510;52.512;13.300;2023-04-21T12:54:15;26.80;46.60
28244;DHT22;15510;52.512;13.300;2023-04-21T12:56:41;27.70;46.30
28244;DHT22;15510;52.512;13.300;2023-04-21T12:59:08;28.50;44.90
28244;DHT22;15510;52.512;13.300;2023-04-21T13:01:36;28.50;44.10
28244;DHT22;15510;52.512;13.300;2023-04-21T13:04:02;28.40;44.90
28244;DHT22;15510;52.512;13.300;2023-04-21T13:06:29;27.10;44.80
28244;DHT22;15510;52.512;13.300;2023-04-21T13:08:55;26.00;46.20
28244;DHT22;15510;52.512;13.300;2023-04-21T13:11:21;24.70;47.40
28244;DHT22;15510;52.512;13.300;2023-04-21T13:13:47;24.30;48.70
28244;DHT22;15510;52.512;13.300;2023-04-21T13:16:12;25.00;48.50
28244;DHT22;15510;52.512;13.300;2023-04-21T13:18:38;25.70;48.10
28244;DHT22;15510;52.512;13.300;2023-04-21T13:21:04;27.20;47.20
28244;DHT22;15510;52.512;13.300;2023-04-21T13:23:30;28.50;45.20
28244;DHT22;15510;52.512;13.300;2023-04-21T13:25:57;29.10;44.20
28244;DHT22;15510;52.512;13.300;2023-04-21T13:28:23;29.50;43.30
28244;DHT22;15510;52.512;13.300;2023-04-21T13:30:51;31.10;42.00
28244;DHT22;15510;52.512;13.300;2023-04-21T13:33:17;31.60;40.40
28244;DHT22;15510;52.512;13.300;2023-04-21T13:35:43;31.70;40.10
28244;DHT22;15510;52.512;13.300;2023-04-21T13:38:08;31.90;39.50
28244;DHT22;15510;52.512;13.300;2023-04-21T13:40:34;32.40;38.50
28244;DHT22;15510;52.512;13.300;2023-04-21T13:43:01;31.50;38.70
28244;DHT22;15510;52.512;13.300;2023-04-21T13:45:27;29.90;39.30
28244;DHT22;15510;52.512;13.300;2023-04-21T13:47:52;27.90;41.40
28244;DHT22;15510;52.512;13.300;2023-04-21T13:50:18;26.30;43.20
28244;DHT22;15510;52.512;13.300;2023-04-21T13:52:44;25.70;44.50
28244;DHT22;15510;52.512;13.300;2023-04-21T13:55:10;25.80;44.90
28244;DHT22;15510;52.512;13.300;2023-04-21T13:57:39;26.20;45.20
28244;DHT22;15510;52.512;13.300;2023-04-21T14:00:05;26.30;44.80
28244;DHT22;15510;52.512;13.300;2023-04-21T14:02:31;27.10;44.10
28244;DHT22;15510;52.512;13.300;2023-04-21T14:04:57;28.10;43.10
28244;DHT22;15510;52.512;13.300;2023-04-21T14:07:22;27.90;42.90
28244;DHT22;15510;52.512;13.300;2023-04-21T14:09:49;27.90;42.80
28244;DHT22;15510;52.512;13.300;2023-04-21T14:12:16;28.60;42.50
28244;DHT22;15510;52.512;13.300;2023-04-21T14:14:42;29.50;41.30
28244;DHT22;15510;52.512;13.300;2023-04-21T14:17:08;30.00;40.40
28244;DHT22;15510;52.512;13.300;2023-04-21T14:19:34;30.80;40.60
28244;DHT22;15510;52.512;13.300;2023-04-21T14:22:00;31.50;39.00
28244;DHT22;15510;52.512;13.300;2023-04-21T14:24:26;31.10;39.00
28244;DHT22;15510;52.512;13.300;2023-04-21T14:26:54;29.40;39.60
28244;DHT22;15510;52.512;13.300;2023-04-21T14:29:24;27.80;41.20
28244;DHT22;15510;52.512;13.300;2023-04-21T14:31:50;26.80;42.40
28244;DHT22;15510;52.512;13.300;2023-04-21T14:34:18;25.80;43.80
28244;DHT22;15510;52.512;13.300;2023-04-21T14:36:44;24.60;44.80
28244;DHT22;15510;52.512;13.300;2023-04-21T14:39:14;23.70;46.60
28244;DHT22;15510;52.512;13.300;2023-04-21T14:41:40;23.20;48.00
28244;DHT22;15510;52.512;13.300;2023-04-21T14:44:05;22.80;48.70
28244;DHT22;15510;52.512;13.300;2023-04-21T14:46:31;22.60;49.00
28244;DHT22;15510;52.512;13.300;2023-04-21T14:48:57;22.30;50.50
28244;DHT22;15510;52.512;13.300;2023-04-21T14:51:23;22.10;50.10
28244;DHT22;15510;52.512;13.300;2023-04-21T14:53:49;21.90;50.40
28244;DHT22;15510;52.512;13.300;2023-04-21T14:56:15;21.50;51.00
28244;DHT22;15510;52.512;13.300;2023-04-21T14:58:41;21.40;52.30
28244;DHT22;15510;52.512;13.300;2023-04-21T15:01:07;21.30;52.20
28244;DHT22;15510;52.512;13.300;2023-04-21T15:03:32;21.20;52.40
28244;DHT22;15510;52.512;13.300;2023-04-21T15:05:58;21.20;52.10
28244;DHT22;15510;52.512;13.300;2023-04-21T15:08:24;21.20;52.70
28244;DHT22;15510;52.512;13.300;2023-04-21T15:10:50;21.10;52.90
28244;DHT22;15510;52.512;13.300;2023-04-21T15:13:16;21.00;52.80
28244;DHT22;15510;52.512;13.300;2023-04-21T15:15:42;21.00;52.90
28244;DHT22;15510;52.512;13.300;2023-04-21T15:18:08;21.00;53.10
28244;DHT22;15510;52.512;13.300;2023-04-21T15:20:33;20.90;53.10
28244;DHT22;15510;52.512;13.300;2023-04-21T15:22:59;20.90;53.20
28244;DHT22;15510;52.512;13.300;2023-04-21T15:25:25;20.80;53.50
28244;DHT22;15510;52.512;13.300;2023-04-21T15:27:51;20.80;54.00